Time;durP1;ratioP1;P1;durP2;ratioP2;P2;SDS_P1;SDS_P2;PMS_P1;PMS_P2;Temp;Humidity;BMP_temperature;BMP_pressure;BME280_temperature;BME280_humidity;BME280_pressure;Samples;Min_cycle;Max_cycle;Signal;HPM_P1;HPM_P2
2022/09/23 00:00:58;;;;;;;;;;;;;;;;;;2132205;27;20002;-44
2022/09/23 00:01:59;;;;;;;;;;;;;;;;;;2132304;27;19996;-45
2022/09/23 00:03:00;;;;;;;;;;;;;;;;;;2132339;27;19971;-42
2022/09/23 00:04:00;;;;;;;;;;;;;;;;;;2132240;27;19923;-41
2022/09/23 00:05:02;;;;;;;;;;;;;;;;;;2132397;27;20018;-42
2022/09/23 00:06:03;;;;;;;;;;;;;;;;;;2132212;27;19991;-42
2022/09/23 00:07:04;;;;;;;;;;;;;;;;;;2132125;27;19968;-42
2022/09/23 00:08:05;;;;;;;;;;;;;;;;;;2132159;27;19974;-42
2022/09/23 00:09:06;;;;;;;;;;;;;;;;;;2132292;27;20071;-42
2022/09/23 00:10:06;;;;;;;;;;;;;;;;;;2132270;27;19968;-42
2022/09/23 00:11:07;;;;;;;;;;;;;;;;;;2132127;27;20402;-42
2022/09/23 00:12:09;;;;;;;;;;;;;;;;;;2132288;27;19930;-45
2022/09/23 00:13:10;;;;;;;;;;;;;;;;;;2132044;27;19931;-44
2022/09/23 00:14:10;;;;;;;;;;;;;;;;;;2132136;27;20010;-44
2022/09/23 00:15:11;;;;;;;;;;;;;;;;;;2132343;27;20416;-44
2022/09/23 00:16:12;;;;;;;;;;;;;;;;;;2132182;27;19930;-44
2022/09/23 00:17:13;;;;;;;;;;;;;;;;;;2132022;27;19923;-45
2022/09/23 00:18:14;;;;;;;;;;;;;;;;;;2132244;27;20440;-44
2022/09/23 00:19:15;;;;;;;;;;;;;;;;;;2132301;27;19934;-44
2022/09/23 00:20:16;;;;;;;;;;;;;;;;;;2132012;27;20368;-44
2022/09/23 00:21:17;;;;;;;;;;;;;;;;;;2132145;27;19946;-44
2022/09/23 00:22:18;;;;;;;;;;;;;;;;;;2132227;27;19929;-44
2022/09/23 00:23:19;;;;;;;;;;;;;;;;;;2132064;27;19923;-44
2022/09/23 00:24:19;;;;;;;;;;;;;;;;;;2132204;27;19923;-44
2022/09/23 00:25:20;;;;;;;;;;;;;;;;;;2132166;27;20288;-44
2022/09/23 00:26:21;;;;;;;;;;;;;;;;;;2132097;27;19976;-44
2022/09/23 00:27:22;;;;;;;;;;;;;;;;;;2132055;27;19927;-44
2022/09/23 00:28:23;;;;;;;;;;;;;;;;;;2132254;27;19923;-44
2022/09/23 00:29:24;;;;;;;;;;;;;;;;;;2131987;27;19922;-45
2022/09/23 00:30:25;;;;;;;;;;;;;;;;;;2132214;27;20364;-45
2022/09/23 00:31:26;;;;;;;;;;;;;;;;;;2132064;27;20030;-44
2022/09/23 00:32:26;;;;;;;;;;;;;;;;;;2131962;27;19975;-45
2022/09/23 00:33:28;;;;;;;;;;;;;;;;;;2131973;27;19926;-45
2022/09/23 00:34:29;;;;;;;;;;;;;;;;;;2131910;27;20333;-45
2022/09/23 00:35:30;;;;;;;;;;;;;;;;;;2132411;27;20059;-45
2022/09/23 00:36:31;;;;;;;;;;;;;;;;;;2132046;27;19973;-45
2022/09/23 00:37:32;;;;;;;;;;;;;;;;;;2131639;27;19991;-44
2022/09/23 00:38:32;;;;;;;;;;;;;;;;;;2132047;27;20420;-44
2022/09/23 00:39:33;;;;;;;;;;;;;;;;;;2132181;27;19946;-46
2022/09/23 00:40:35;;;;;;;;;;;;;;;;;;2132020;27;20380;-44
2022/09/23 00:41:36;;;;;;;;;;;;;;;;;;2132081;27;19923;-45
2022/09/23 00:42:36;;;;;;;;;;;;;;;;;;2132164;27;20366;-44
2022/09/23 00:43:37;;;;;;;;;;;;;;;;;;2131873;27;19930;-45
2022/09/23 00:44:38;;;;;;;;;;;;;;;;;;2131994;27;19923;-44
2022/09/23 00:45:39;;;;;;;;;;;;;;;;;;2132112;27;19970;-42
2022/09/23 00:46:40;;;;;;;;;;;;;;;;;;2131981;27;19923;-42
2022/09/23 00:47:41;;;;;;;;;;;;;;;;;;2132060;27;19930;-42
2022/09/23 00:48:41;;;;;;;;;;;;;;;;;;2132176;27;19923;-41
2022/09/23 00:49:42;;;;;;;;;;;;;;;;;;2132016;27;20257;-41
2022/09/23 00:50:43;;;;;;;;;;;;;;;;;;2132043;27;20253;-41
2022/09/23 00:51:44;;;;;;;;;;;;;;;;;;2131901;27;19930;-42
2022/09/23 00:52:45;;;;;;;;;;;;;;;;;;2131810;27;19927;-41
2022/09/23 00:53:46;;;;;;;;;;;;;;;;;;2132049;27;19975;-41
2022/09/23 00:54:46;;;;;;;;;;;;;;;;;;2131933;27;20063;-41
2022/09/23 00:55:47;;;;;;;;;;;;;;;;;;2131888;27;19929;-41
2022/09/23 00:56:48;;;;;;;;;;;;;;;;;;2131846;27;20394;-42
2022/09/23 00:57:49;;;;;;;;;;;;;;;;;;2131859;27;20368;-42
2022/09/23 00:58:50;;;;;;;;;;;;;;;;;;2132034;27;19927;-45
2022/09/23 00:59:51;;;;;;;;;;;;;;;;;;2131897;27;19930;-44
2022/09/23 01:00:52;;;;;;;;;;;;;;;;;;2131818;27;19923;-44
2022/09/23 01:01:53;;;;;;;;;;;;;;;;;;2131844;27;20404;-45
2022/09/23 01:02:54;;;;;;;;;;;;;;;;;;2132022;27;19927;-44
2022/09/23 01:03:55;;;;;;;;;;;;;;;;;;2131768;27;19927;-45
2022/09/23 01:04:55;;;;;;;;;;;;;;;;;;2131831;27;20390;-44
2022/09/23 01:05:56;;;;;;;;;;;;;;;;;;2131804;27;19965;-46
2022/09/23 01:06:57;;;;;;;;;;;;;;;;;;2131930;27;20022;-44
2022/09/23 01:07:58;;;;;;;;;;;;;;;;;;2131832;27;19926;-45
2022/09/23 01:08:59;;;;;;;;;;;;;;;;;;2131889;27;19931;-44
2022/09/23 01:10:00;;;;;;;;;;;;;;;;;;2131834;27;19923;-45
2022/09/23 01:11:00;;;;;;;;;;;;;;;;;;2132154;27;19924;-42
2022/09/23 01:12:02;;;;;;;;;;;;;;;;;;2131804;27;19969;-42
2022/09/23 01:13:03;;;;;;;;;;;;;;;;;;2131906;27;20374;-42
2022/09/23 01:14:03;;;;;;;;;;;;;;;;;;2131983;27;19923;-42
2022/09/23 01:15:04;;;;;;;;;;;;;;;;;;2131809;27;20033;-42
2022/09/23 01:16:05;;;;;;;;;;;;;;;;;;2131894;27;19944;-42
2022/09/23 01:17:06;;;;;;;;;;;;;;;;;;2131748;27;20376;-42
2022/09/23 01:18:07;;;;;;;;;;;;;;;;;;2131791;27;20380;-42
2022/09/23 01:19:08;;;;;;;;;;;;;;;;;;2131786;27;20398;-42
2022/09/23 01:20:09;;;;;;;;;;;;;;;;;;2132180;27;19929;-42
2022/09/23 01:21:09;;;;;;;;;;;;;;;;;;2131917;27;19958;-42
2022/09/23 01:22:10;;;;;;;;;;;;;;;;;;2131713;27;20021;-42
2022/09/23 01:23:11;;;;;;;;;;;;;;;;;;2131903;27;20358;-42
2022/09/23 01:24:12;;;;;;;;;;;;;;;;;;2131884;27;19927;-42
2022/09/23 01:25:12;;;;;;;;;;;;;;;;;;2131979;27;19923;-42
2022/09/23 01:26:13;;;;;;;;;;;;;;;;;;2132087;27;19930;-45
2022/09/23 01:27:14;;;;;;;;;;;;;;;;;;2131786;27;19969;-44
2022/09/23 01:28:15;;;;;;;;;;;;;;;;;;2131688;27;19991;-44
2022/09/23 01:29:16;;;;;;;;;;;;;;;;;;2131703;27;20011;-44
2022/09/23 01:30:17;;;;;;;;;;;;;;;;;;2131689;27;19923;-45
2022/09/23 01:31:18;;;;;;;;;;;;;;;;;;2131757;27;19922;-45
2022/09/23 01:32:18;;;;;;;;;;;;;;;;;;2131844;27;19968;-42
2022/09/23 01:33:19;;;;;;;;;;;;;;;;;;2131692;27;19927;-42
2022/09/23 01:34:21;;;;;;;;;;;;;;;;;;2131708;27;19923;-42
2022/09/23 01:35:22;;;;;;;;;;;;;;;;;;2131737;27;19939;-42
2022/09/23 01:36:23;;;;;;;;;;;;;;;;;;2131862;27;20329;-42
2022/09/23 01:37:24;;;;;;;;;;;;;;;;;;2131790;27;19923;-42
2022/09/23 01:38:24;;;;;;;;;;;;;;;;;;2131908;27;20316;-42
2022/09/23 01:39:25;;;;;;;;;;;;;;;;;;2131727;27;19923;-42
2022/09/23 01:40:26;;;;;;;;;;;;;;;;;;2131722;27;19923;-42
2022/09/23 01:41:27;;;;;;;;;;;;;;;;;;2131728;27;19923;-42
2022/09/23 01:42:28;;;;;;;;;;;;;;;;;;2131872;27;20325;-42
2022/09/23 01:43:29;;;;;;;;;;;;;;;;;;2131853;27;19923;-42
2022/09/23 01:44:32;;;;;;;;;;;;;;;;;;2131856;27;20368;-42
2022/09/23 01:45:32;;;;;;;;;;;;;;;;;;2132013;27;19971;-42
2022/09/23 01:46:33;;;;;;;;;;;;;;;;;;2131615;27;19988;-42
2022/09/23 01:47:34;;;;;;;;;;;;;;;;;;2131741;27;19930;-42
2022/09/23 01:48:35;;;;;;;;;;;;;;;;;;2131568;27;19927;-42
2022/09/23 01:49:36;;;;;;;;;;;;;;;;;;2131627;27;20299;-42
2022/09/23 01:51:56;;;;;;;;;;;;;;;;;;2131716;27;19923;-42
2022/09/23 01:52:56;;;;;;;;;;;;;;;;;;2131541;27;19927;-42
2022/09/23 01:53:57;;;;;;;;;;;;;;;;;;2131642;27;19950;-42
2022/09/23 01:54:58;;;;;;;;;;;;;;;;;;2131545;27;19934;-42
2022/09/23 01:55:59;;;;;;;;;;;;;;;;;;2131733;27;19928;-42
2022/09/23 01:57:00;;;;;;;;;;;;;;;;;;2131507;27;19927;-42
2022/09/23 01:58:01;;;;;;;;;;;;;;;;;;2131818;27;19923;-44
2022/09/23 01:59:02;;;;;;;;;;;;;;;;;;2133277;27;19923;-42
2022/09/23 02:00:04;;;;;;;;;;;;;;;;;;2133095;27;19923;-42
2022/09/23 02:01:05;;;;;;;;;;;;;;;;;;2133204;27;19927;-42
2022/09/23 02:02:07;;;;;;;;;;;;;;;;;;2132911;27;20034;-42
2022/09/23 02:03:09;;;;;;;;;;;;;;;;;;2133192;27;19923;-42
2022/09/23 02:04:10;;;;;;;;;;;;;;;;;;2133171;27;19923;-42
2022/09/23 02:05:11;;;;;;;;;;;;;;;;;;2133024;27;19927;-42
2022/09/23 02:06:12;;;;;;;;;;;;;;;;;;2133228;27;19923;-42
2022/09/23 02:07:14;;;;;;;;;;;;;;;;;;2133013;27;19923;-42
2022/09/23 02:08:14;;;;;;;;;;;;;;;;;;2133054;27;20424;-42
2022/09/23 02:09:15;;;;;;;;;;;;;;;;;;2133038;27;20019;-42
2022/09/23 02:10:16;;;;;;;;;;;;;;;;;;2133173;27;20359;-42
2022/09/23 02:11:17;;;;;;;;;;;;;;;;;;2132752;27;19976;-42
2022/09/23 02:12:19;;;;;;;;;;;;;;;;;;2133056;27;19991;-42
2022/09/23 02:13:19;;;;;;;;;;;;;;;;;;2133030;27;19927;-42
2022/09/23 02:14:20;;;;;;;;;;;;;;;;;;2133335;27;19923;-42
2022/09/23 02:15:21;;;;;;;;;;;;;;;;;;2133061;27;19923;-42
2022/09/23 02:16:22;;;;;;;;;;;;;;;;;;2132886;27;19982;-42
2022/09/23 02:17:23;;;;;;;;;;;;;;;;;;2133019;27;19923;-42
2022/09/23 02:18:23;;;;;;;;;;;;;;;;;;2132634;27;20023;-42
2022/09/23 02:19:25;;;;;;;;;;;;;;;;;;2133193;27;19923;-42
2022/09/23 02:20:26;;;;;;;;;;;;;;;;;;2132945;27;19962;-42
2022/09/23 02:21:27;;;;;;;;;;;;;;;;;;2132871;27;19923;-42
2022/09/23 02:22:28;;;;;;;;;;;;;;;;;;2132901;27;20439;-42
2022/09/23 02:23:29;;;;;;;;;;;;;;;;;;2133126;27;19985;-45
2022/09/23 02:24:30;;;;;;;;;;;;;;;;;;2132992;27;19935;-45
2022/09/23 02:25:32;;;;;;;;;;;;;;;;;;2132926;27;19962;-45
2022/09/23 02:26:33;;;;;;;;;;;;;;;;;;2132660;27;20314;-44
2022/09/23 02:27:34;;;;;;;;;;;;;;;;;;2132892;27;19923;-44
2022/09/23 02:28:35;;;;;;;;;;;;;;;;;;2132691;27;19934;-44
2022/09/23 02:29:36;;;;;;;;;;;;;;;;;;2132947;27;20458;-45
2022/09/23 02:30:37;;;;;;;;;;;;;;;;;;2132905;27;20214;-46
2022/09/23 02:31:38;;;;;;;;;;;;;;;;;;2132874;27;20376;-46
2022/09/23 02:32:40;;;;;;;;;;;;;;;;;;2132829;27;20006;-44
2022/09/23 02:33:40;;;;;;;;;;;;;;;;;;2132778;27;20410;-44
2022/09/23 02:34:41;;;;;;;;;;;;;;;;;;2133215;27;19923;-42
2022/09/23 02:35:42;;;;;;;;;;;;;;;;;;2132932;27;19976;-43
2022/09/23 02:36:44;;;;;;;;;;;;;;;;;;2132867;27;19930;-42
2022/09/23 02:37:46;;;;;;;;;;;;;;;;;;2132762;27;20287;-42
2022/09/23 02:38:48;;;;;;;;;;;;;;;;;;2132828;27;20398;-42
2022/09/23 02:39:49;;;;;;;;;;;;;;;;;;2132921;27;20291;-43
2022/09/23 02:40:50;;;;;;;;;;;;;;;;;;2132917;27;19966;-43
2022/09/23 02:41:51;;;;;;;;;;;;;;;;;;2132888;27;20017;-42
2022/09/23 02:42:52;;;;;;;;;;;;;;;;;;2132792;27;19923;-42
2022/09/23 02:43:52;;;;;;;;;;;;;;;;;;2132804;27;19975;-42
2022/09/23 02:44:53;;;;;;;;;;;;;;;;;;2132794;27;19923;-42
2022/09/23 02:45:54;;;;;;;;;;;;;;;;;;2132770;27;19927;-42
2022/09/23 02:46:56;;;;;;;;;;;;;;;;;;2132733;27;19958;-42
2022/09/23 02:47:57;;;;;;;;;;;;;;;;;;2132786;27;19923;-42
2022/09/23 02:48:59;;;;;;;;;;;;;;;;;;2132788;27;19927;-42
2022/09/23 02:50:00;;;;;;;;;;;;;;;;;;2132933;27;20150;-42
2022/09/23 02:51:02;;;;;;;;;;;;;;;;;;2132807;27;19969;-42
2022/09/23 02:52:03;;;;;;;;;;;;;;;;;;2132893;27;20053;-43
2022/09/23 02:53:04;;;;;;;;;;;;;;;;;;2132763;27;19923;-42
2022/09/23 02:54:06;;;;;;;;;;;;;;;;;;2132707;27;19927;-42
2022/09/23 02:55:07;;;;;;;;;;;;;;;;;;2132894;27;19927;-42
2022/09/23 02:56:07;;;;;;;;;;;;;;;;;;2132733;27;19923;-42
2022/09/23 02:57:08;;;;;;;;;;;;;;;;;;2132672;27;20022;-42
2022/09/23 02:58:09;;;;;;;;;;;;;;;;;;2132725;27;19923;-42
2022/09/23 02:59:10;;;;;;;;;;;;;;;;;;2132770;27;19927;-42
2022/09/23 03:00:11;;;;;;;;;;;;;;;;;;2132780;27;20385;-42
2022/09/23 03:01:12;;;;;;;;;;;;;;;;;;2132703;27;19923;-43
2022/09/23 03:02:13;;;;;;;;;;;;;;;;;;2132765;27;20072;-43
2022/09/23 03:03:14;;;;;;;;;;;;;;;;;;2132831;27;19930;-43
2022/09/23 03:04:15;;;;;;;;;;;;;;;;;;2132673;27;20496;-43
2022/09/23 03:05:17;;;;;;;;;;;;;;;;;;2132619;27;19923;-43
2022/09/23 03:06:17;;;;;;;;;;;;;;;;;;2132689;27;19930;-42
2022/09/23 03:07:18;;;;;;;;;;;;;;;;;;2132641;27;20042;-43
2022/09/23 03:08:19;;;;;;;;;;;;;;;;;;2132633;27;19923;-43
2022/09/23 03:09:20;;;;;;;;;;;;;;;;;;2132204;27;19978;-42
2022/09/23 03:10:20;;;;;;;;;;;;;;;;;;2131763;27;19923;-43
2022/09/23 03:11:23;;;;;;;;;;;;;;;;;;2132428;27;19931;-43
2022/09/23 03:12:24;;;;;;;;;;;;;;;;;;2132699;27;19934;-42
2022/09/23 03:13:25;;;;;;;;;;;;;;;;;;2132669;27;19923;-43
2022/09/23 03:14:29;;;;;;;;;;;;;;;;;;2132699;27;19923;-43
2022/09/23 03:15:30;;;;;;;;;;;;;;;;;;2132735;27;20300;-43
2022/09/23 03:16:31;;;;;;;;;;;;;;;;;;2132725;27;20281;-45
2022/09/23 03:17:32;;;;;;;;;;;;;;;;;;2132673;27;20293;-45
2022/09/23 03:18:33;;;;;;;;;;;;;;;;;;2132580;27;19923;-45
2022/09/23 03:19:34;;;;;;;;;;;;;;;;;;2132633;27;19934;-45
2022/09/23 03:20:35;;;;;;;;;;;;;;;;;;2132567;27;20038;-46
2022/09/23 03:21:36;;;;;;;;;;;;;;;;;;2132506;27;19923;-45
2022/09/23 03:22:38;;;;;;;;;;;;;;;;;;2132390;27;20032;-45
2022/09/23 03:23:39;;;;;;;;;;;;;;;;;;2132661;27;19923;-46
2022/09/23 03:24:39;;;;;;;;;;;;;;;;;;2132431;27;20248;-48
2022/09/23 03:25:41;;;;;;;;;;;;;;;;;;2132516;27;19967;-46
2022/09/23 03:26:42;;;;;;;;;;;;;;;;;;2132592;27;19923;-45
2022/09/23 03:27:44;;;;;;;;;;;;;;;;;;2132502;27;19923;-47
2022/09/23 03:28:45;;;;;;;;;;;;;;;;;;2132629;27;19934;-45
2022/09/23 03:29:46;;;;;;;;;;;;;;;;;;2132397;27;20015;-45
2022/09/23 03:30:46;;;;;;;;;;;;;;;;;;2132692;27;20325;-45
2022/09/23 03:31:47;;;;;;;;;;;;;;;;;;2132387;27;19927;-45
2022/09/23 03:32:50;;;;;;;;;;;;;;;;;;2132448;27;20376;-45
2022/09/23 03:33:51;;;;;;;;;;;;;;;;;;2132479;27;19923;-45
2022/09/23 03:34:51;;;;;;;;;;;;;;;;;;2132573;27;19930;-45
2022/09/23 03:37:12;;;;;;;;;;;;;;;;;;2132305;27;20265;-45
2022/09/23 03:38:16;;;;;;;;;;;;;;;;;;2132423;27;19968;-45
2022/09/23 03:39:17;;;;;;;;;;;;;;;;;;2132591;27;19972;-43
2022/09/23 03:40:18;;;;;;;;;;;;;;;;;;2132524;27;19972;-42
2022/09/23 03:41:19;;;;;;;;;;;;;;;;;;2132441;27;20371;-42
2022/09/23 03:42:19;;;;;;;;;;;;;;;;;;2132357;27;19975;-43
2022/09/23 03:43:20;;;;;;;;;;;;;;;;;;2132709;27;20015;-43
2022/09/23 03:44:22;;;;;;;;;;;;;;;;;;2132518;27;20264;-42
2022/09/23 03:45:24;;;;;;;;;;;;;;;;;;2132475;27;19923;-43
2022/09/23 03:46:26;;;;;;;;;;;;;;;;;;2132390;27;19927;-43
2022/09/23 03:47:27;;;;;;;;;;;;;;;;;;2132354;27;19924;-43
2022/09/23 03:48:27;;;;;;;;;;;;;;;;;;2132360;27;19923;-42
2022/09/23 03:49:28;;;;;;;;;;;;;;;;;;2132545;27;19972;-42
2022/09/23 03:50:29;;;;;;;;;;;;;;;;;;2132265;27;20291;-42
2022/09/23 03:51:30;;;;;;;;;;;;;;;;;;2132420;27;19930;-43
2022/09/23 03:52:31;;;;;;;;;;;;;;;;;;2132361;27;19924;-43
2022/09/23 03:53:32;;;;;;;;;;;;;;;;;;2132225;27;19974;-42
2022/09/23 03:54:32;;;;;;;;;;;;;;;;;;2132358;27;20001;-42
2022/09/23 03:55:34;;;;;;;;;;;;;;;;;;2132498;27;20257;-42
2022/09/23 03:56:34;;;;;;;;;;;;;;;;;;2132252;27;19923;-42
2022/09/23 03:57:35;;;;;;;;;;;;;;;;;;2132344;27;20384;-43
2022/09/23 03:58:36;;;;;;;;;;;;;;;;;;2132240;27;19958;-43
2022/09/23 03:59:37;;;;;;;;;;;;;;;;;;2132532;27;19930;-42
2022/09/23 04:00:38;;;;;;;;;;;;;;;;;;2132406;27;19923;-42
2022/09/23 04:01:40;;;;;;;;;;;;;;;;;;2132228;27;20395;-43
2022/09/23 04:02:41;;;;;;;;;;;;;;;;;;2132237;27;20476;-43
2022/09/23 04:03:42;;;;;;;;;;;;;;;;;;2132424;27;19975;-43
2022/09/23 04:04:43;;;;;;;;;;;;;;;;;;2132656;27;19923;-45
2022/09/23 04:05:44;;;;;;;;;;;;;;;;;;2132275;27;19927;-45
2022/09/23 04:06:44;;;;;;;;;;;;;;;;;;2132215;27;19927;-45
2022/09/23 04:07:46;;;;;;;;;;;;;;;;;;2132310;27;20395;-45
2022/09/23 04:08:47;;;;;;;;;;;;;;;;;;2132364;27;19949;-45
2022/09/23 04:09:48;;;;;;;;;;;;;;;;;;2132521;27;19976;-43
2022/09/23 04:10:49;;;;;;;;;;;;;;;;;;2132371;27;19930;-42
2022/09/23 04:11:55;;;;;;;;;;;;;;;;;;2132119;27;19930;-43
2022/09/23 04:12:55;;;;;;;;;;;;;;;;;;2132098;27;19930;-43
2022/09/23 04:13:56;;;;;;;;;;;;;;;;;;2132226;27;20359;-42
2022/09/23 04:14:57;;;;;;;;;;;;;;;;;;2132098;27;19930;-43
2022/09/23 04:15:58;;;;;;;;;;;;;;;;;;2132321;27;19934;-43
2022/09/23 04:16:59;;;;;;;;;;;;;;;;;;2132039;27;19927;-43
2022/09/23 04:18:00;;;;;;;;;;;;;;;;;;2132315;27;19930;-45
2022/09/23 04:19:01;;;;;;;;;;;;;;;;;;2132411;27;19923;-42
2022/09/23 04:20:02;;;;;;;;;;;;;;;;;;2132339;27;19971;-42
2022/09/23 04:21:03;;;;;;;;;;;;;;;;;;2131457;27;19923;-42
2022/09/23 04:22:04;;;;;;;;;;;;;;;;;;2132227;27;19944;-42
2022/09/23 04:23:04;;;;;;;;;;;;;;;;;;2131987;27;20291;-42
2022/09/23 04:24:05;;;;;;;;;;;;;;;;;;2132091;27;19927;-42
2022/09/23 04:25:06;;;;;;;;;;;;;;;;;;2132564;27;19923;-45
2022/09/23 04:26:07;;;;;;;;;;;;;;;;;;2132344;27;19923;-45
2022/09/23 04:27:08;;;;;;;;;;;;;;;;;;2132129;27;19931;-46
2022/09/23 04:28:09;;;;;;;;;;;;;;;;;;2132188;27;20379;-45
2022/09/23 04:29:10;;;;;;;;;;;;;;;;;;2132499;27;19923;-46
2022/09/23 04:30:11;;;;;;;;;;;;;;;;;;2132042;27;19930;-46
2022/09/23 04:31:12;;;;;;;;;;;;;;;;;;2132343;27;20284;-42
2022/09/23 04:32:13;;;;;;;;;;;;;;;;;;2132143;27;19923;-42
2022/09/23 04:33:14;;;;;;;;;;;;;;;;;;2131943;27;19929;-42
2022/09/23 04:34:16;;;;;;;;;;;;;;;;;;2132085;27;19926;-42
2022/09/23 04:35:16;;;;;;;;;;;;;;;;;;2132019;27;19927;-42
2022/09/23 04:36:17;;;;;;;;;;;;;;;;;;2132200;27;19923;-42
2022/09/23 04:37:18;;;;;;;;;;;;;;;;;;2132224;27;20399;-42
2022/09/23 04:38:19;;;;;;;;;;;;;;;;;;2132056;27;19927;-42
2022/09/23 04:39:20;;;;;;;;;;;;;;;;;;2132091;27;19923;-42
2022/09/23 04:40:21;;;;;;;;;;;;;;;;;;2132049;27;19923;-42
2022/09/23 04:41:22;;;;;;;;;;;;;;;;;;2132005;27;19932;-43
2022/09/23 04:42:23;;;;;;;;;;;;;;;;;;2132218;27;19927;-42
2022/09/23 04:43:24;;;;;;;;;;;;;;;;;;2131997;27;19927;-42
2022/09/23 04:44:26;;;;;;;;;;;;;;;;;;2132209;27;19923;-42
2022/09/23 04:45:29;;;;;;;;;;;;;;;;;;2132147;27;19975;-42
2022/09/23 04:46:30;;;;;;;;;;;;;;;;;;2132124;27;19923;-42
2022/09/23 04:47:31;;;;;;;;;;;;;;;;;;2131934;27;20390;-42
2022/09/23 04:48:32;;;;;;;;;;;;;;;;;;2131965;27;19923;-42
2022/09/23 04:49:32;;;;;;;;;;;;;;;;;;2132278;27;19930;-42
2022/09/23 04:50:33;;;;;;;;;;;;;;;;;;2131913;27;19929;-42
2022/09/23 04:51:34;;;;;;;;;;;;;;;;;;2132259;27;19933;-45
2022/09/23 04:52:35;;;;;;;;;;;;;;;;;;2131967;27;19950;-45
2022/09/23 04:53:36;;;;;;;;;;;;;;;;;;2131987;27;19931;-45
2022/09/23 04:54:37;;;;;;;;;;;;;;;;;;2132170;27;19923;-42
2022/09/23 04:55:37;;;;;;;;;;;;;;;;;;2131870;27;19931;-42
2022/09/23 04:56:38;;;;;;;;;;;;;;;;;;2131938;27;19923;-42
2022/09/23 04:57:40;;;;;;;;;;;;;;;;;;2132000;27;20322;-42
2022/09/23 04:58:41;;;;;;;;;;;;;;;;;;2132252;27;19930;-45
2022/09/23 04:59:44;;;;;;;;;;;;;;;;;;2132065;27;20406;-42
2022/09/23 05:00:45;;;;;;;;;;;;;;;;;;2132272;27;19930;-42
2022/09/23 05:01:46;;;;;;;;;;;;;;;;;;2131782;27;19930;-42
2022/09/23 05:02:47;;;;;;;;;;;;;;;;;;2131992;27;19931;-42
2022/09/23 05:03:47;;;;;;;;;;;;;;;;;;2131974;27;19923;-42
2022/09/23 05:04:49;;;;;;;;;;;;;;;;;;2131821;27;19923;-42
2022/09/23 05:05:49;;;;;;;;;;;;;;;;;;2132224;27;19950;-45
2022/09/23 05:06:50;;;;;;;;;;;;;;;;;;2131819;27;20303;-44
2022/09/23 05:07:51;;;;;;;;;;;;;;;;;;2131963;27;19923;-45
2022/09/23 05:08:52;;;;;;;;;;;;;;;;;;2131846;27;19923;-45
2022/09/23 05:09:53;;;;;;;;;;;;;;;;;;2132001;27;20391;-45
2022/09/23 05:10:54;;;;;;;;;;;;;;;;;;2131917;27;19923;-44
2022/09/23 05:11:55;;;;;;;;;;;;;;;;;;2131588;27;19927;-45
2022/09/23 05:12:56;;;;;;;;;;;;;;;;;;2131968;27;20402;-42
2022/09/23 05:13:58;;;;;;;;;;;;;;;;;;2131910;27;20494;-42
2022/09/23 05:14:58;;;;;;;;;;;;;;;;;;2131788;27;19956;-42
2022/09/23 05:16:00;;;;;;;;;;;;;;;;;;2131917;27;20446;-44
2022/09/23 05:17:01;;;;;;;;;;;;;;;;;;2131560;27;20367;-45
2022/09/23 05:18:01;;;;;;;;;;;;;;;;;;2131831;27;19923;-44
2022/09/23 05:19:02;;;;;;;;;;;;;;;;;;2131980;27;19923;-45
2022/09/23 05:20:03;;;;;;;;;;;;;;;;;;2132012;27;19923;-45
2022/09/23 05:21:04;;;;;;;;;;;;;;;;;;2132188;27;20379;-42
2022/09/23 05:22:05;;;;;;;;;;;;;;;;;;2131750;27;19929;-42
2022/09/23 05:23:06;;;;;;;;;;;;;;;;;;2132120;27;20021;-45
2022/09/23 05:24:07;;;;;;;;;;;;;;;;;;2131683;27;19975;-45
2022/09/23 05:25:08;;;;;;;;;;;;;;;;;;2131750;27;19983;-45
2022/09/23 05:26:09;;;;;;;;;;;;;;;;;;2131793;27;19942;-45
2022/09/23 05:27:10;;;;;;;;;;;;;;;;;;2131575;27;19923;-45
2022/09/23 05:28:11;;;;;;;;;;;;;;;;;;2131826;27;19924;-44
2022/09/23 05:29:12;;;;;;;;;;;;;;;;;;2131705;27;19923;-44
2022/09/23 05:30:12;;;;;;;;;;;;;;;;;;2131756;27;20296;-45
2022/09/23 05:31:14;;;;;;;;;;;;;;;;;;2131926;27;19923;-42
2022/09/23 05:32:20;;;;;;;;;;;;;;;;;;2131711;27;19923;-42
2022/09/23 05:33:21;;;;;;;;;;;;;;;;;;2131856;27;19923;-42
2022/09/23 05:34:23;;;;;;;;;;;;;;;;;;2133480;27;19923;-42
2022/09/23 05:35:24;;;;;;;;;;;;;;;;;;2133283;27;19934;-42
2022/09/23 05:36:25;;;;;;;;;;;;;;;;;;2133311;27;19945;-42
2022/09/23 05:37:25;;;;;;;;;;;;;;;;;;2133237;27;20395;-42
2022/09/23 05:38:26;;;;;;;;;;;;;;;;;;2133129;27;19923;-42
2022/09/23 05:39:28;;;;;;;;;;;;;;;;;;2133215;27;19967;-42
2022/09/23 05:40:29;;;;;;;;;;;;;;;;;;2133196;27;19930;-42
2022/09/23 05:41:30;;;;;;;;;;;;;;;;;;2133318;27;19930;-42
2022/09/23 05:42:30;;;;;;;;;;;;;;;;;;2133112;27;19923;-42
2022/09/23 05:43:32;;;;;;;;;;;;;;;;;;2133309;27;20340;-42
2022/09/23 05:44:32;;;;;;;;;;;;;;;;;;2133133;27;20335;-42
2022/09/23 05:45:34;;;;;;;;;;;;;;;;;;2133515;27;19930;-45
2022/09/23 05:46:35;;;;;;;;;;;;;;;;;;2133138;27;20430;-45
2022/09/23 05:47:37;;;;;;;;;;;;;;;;;;2133452;27;19938;-42
2022/09/23 05:48:38;;;;;;;;;;;;;;;;;;2133139;27;20368;-42
2022/09/23 05:49:38;;;;;;;;;;;;;;;;;;2133123;27;19923;-42
2022/09/23 05:50:59;;;;;;;;;;;;;;;;;;2133303;27;20299;-42
2022/09/23 05:52:00;;;;;;;;;;;;;;;;;;2133228;27;19934;-42
2022/09/23 05:53:01;;;;;;;;;;;;;;;;;;2133125;27;19923;-42
2022/09/23 05:54:02;;;;;;;;;;;;;;;;;;2133028;27;19923;-42
2022/09/23 05:55:04;;;;;;;;;;;;;;;;;;2133259;27;19923;-42
2022/09/23 05:56:05;;;;;;;;;;;;;;;;;;2133053;27;19923;-42
2022/09/23 05:57:06;;;;;;;;;;;;;;;;;;2132983;27;19927;-42
2022/09/23 05:58:06;;;;;;;;;;;;;;;;;;2133409;27;19944;-45
2022/09/23 05:59:08;;;;;;;;;;;;;;;;;;2133221;27;19931;-45
2022/09/23 06:00:08;;;;;;;;;;;;;;;;;;2133127;27;19923;-45
2022/09/23 06:01:10;;;;;;;;;;;;;;;;;;2133247;27;19968;-46
2022/09/23 06:02:11;;;;;;;;;;;;;;;;;;2133130;27;19930;-45
2022/09/23 06:03:11;;;;;;;;;;;;;;;;;;2133071;27;19927;-46
2022/09/23 06:04:13;;;;;;;;;;;;;;;;;;2133173;27;19927;-45
2022/09/23 06:05:14;;;;;;;;;;;;;;;;;;2133020;27;19923;-44
2022/09/23 06:06:16;;;;;;;;;;;;;;;;;;2133199;27;20141;-45
2022/09/23 06:07:17;;;;;;;;;;;;;;;;;;2133045;27;19923;-45
2022/09/23 06:08:18;;;;;;;;;;;;;;;;;;2133035;27;20028;-44
2022/09/23 06:09:19;;;;;;;;;;;;;;;;;;2132923;27;19930;-44
2022/09/23 06:10:20;;;;;;;;;;;;;;;;;;2133034;27;19923;-47
2022/09/23 06:11:21;;;;;;;;;;;;;;;;;;2132755;27;19923;-46
2022/09/23 06:12:23;;;;;;;;;;;;;;;;;;2133235;27;19930;-45
2022/09/23 06:13:25;;;;;;;;;;;;;;;;;;2132767;27;19923;-46
2022/09/23 06:14:27;;;;;;;;;;;;;;;;;;2132973;27;19930;-46
2022/09/23 06:15:28;;;;;;;;;;;;;;;;;;2133145;27;19927;-46
2022/09/23 06:16:29;;;;;;;;;;;;;;;;;;2132908;27;20285;-46
2022/09/23 06:17:30;;;;;;;;;;;;;;;;;;2132977;27;19923;-45
2022/09/23 06:18:31;;;;;;;;;;;;;;;;;;2132941;27;20291;-46
2022/09/23 06:19:31;;;;;;;;;;;;;;;;;;2132980;27;19931;-45
2022/09/23 06:20:33;;;;;;;;;;;;;;;;;;2133038;27;19930;-46
2022/09/23 06:21:34;;;;;;;;;;;;;;;;;;2133041;27;19923;-45
2022/09/23 06:22:34;;;;;;;;;;;;;;;;;;2133306;27;19927;-45
2022/09/23 06:23:39;;;;;;;;;;;;;;;;;;2133220;27;19976;-43
2022/09/23 06:24:42;;;;;;;;;;;;;;;;;;2133107;27;19923;-45
2022/09/23 06:25:43;;;;;;;;;;;;;;;;;;2132869;27;19930;-45
2022/09/23 06:26:44;;;;;;;;;;;;;;;;;;2132978;27;19924;-45
2022/09/23 06:27:44;;;;;;;;;;;;;;;;;;2133108;27;20369;-46
2022/09/23 06:28:46;;;;;;;;;;;;;;;;;;2132908;27;19927;-45
2022/09/23 06:29:51;;;;;;;;;;;;;;;;;;2133118;27;19982;-45
2022/09/23 06:30:51;;;;;;;;;;;;;;;;;;2133186;27;20361;-46
2022/09/23 06:31:53;;;;;;;;;;;;;;;;;;2132967;27;19930;-45
2022/09/23 06:32:54;;;;;;;;;;;;;;;;;;2132912;27;19976;-46
2022/09/23 06:33:55;;;;;;;;;;;;;;;;;;2132807;27;20014;-44
2022/09/23 06:35:07;;;;;;;;;;;;;;;;;;2133111;27;19923;-45
2022/09/23 06:36:20;;;;;;;;;;;;;;;;;;2133236;27;20451;-43
2022/09/23 06:37:40;;;;;;;;;;;;;;;;;;2132874;27;19923;-42
2022/09/23 06:38:42;;;;;;;;;;;;;;;;;;2132912;27;19923;-42
2022/09/23 06:39:43;;;;;;;;;;;;;;;;;;2132987;27;19930;-42
2022/09/23 06:40:45;;;;;;;;;;;;;;;;;;2132960;27;19945;-43
2022/09/23 06:41:47;;;;;;;;;;;;;;;;;;2132905;27;19923;-43
2022/09/23 06:42:47;;;;;;;;;;;;;;;;;;2132952;27;19923;-43
2022/09/23 06:43:52;;;;;;;;;;;;;;;;;;2132875;27;20375;-42
2022/09/23 06:44:53;;;;;;;;;;;;;;;;;;2132637;27;19923;-43
2022/09/23 06:45:54;;;;;;;;;;;;;;;;;;2133122;27;19930;-44
2022/09/23 06:46:55;;;;;;;;;;;;;;;;;;2132957;27;19930;-46
2022/09/23 06:47:56;;;;;;;;;;;;;;;;;;2132736;27;20430;-45
2022/09/23 06:48:58;;;;;;;;;;;;;;;;;;2132998;27;19930;-45
2022/09/23 06:49:58;;;;;;;;;;;;;;;;;;2132827;27;19923;-45
2022/09/23 06:51:01;;;;;;;;;;;;;;;;;;2132863;27;19934;-44
2022/09/23 06:52:02;;;;;;;;;;;;;;;;;;2132678;27;19922;-45
2022/09/23 06:53:03;;;;;;;;;;;;;;;;;;2132890;27;20283;-45
2022/09/23 06:54:04;;;;;;;;;;;;;;;;;;2132830;27;19923;-45
2022/09/23 06:55:05;;;;;;;;;;;;;;;;;;2132768;27;19923;-46
2022/09/23 06:56:06;;;;;;;;;;;;;;;;;;2132776;27;19926;-45
2022/09/23 06:57:08;;;;;;;;;;;;;;;;;;2132744;27;20282;-46
2022/09/23 06:58:09;;;;;;;;;;;;;;;;;;2132935;27;19930;-45
2022/09/23 06:59:11;;;;;;;;;;;;;;;;;;2132946;27;20300;-45
2022/09/23 07:00:12;;;;;;;;;;;;;;;;;;2132855;27;19964;-45
2022/09/23 07:01:14;;;;;;;;;;;;;;;;;;2132696;27;20457;-46